Time;durP1;ratioP1;P1;durP2;ratioP2;P2;SDS_P1;SDS_P2;PMS_P1;PMS_P2;Temp;Humidity;BMP_temperature;BMP_pressure;BME280_temperature;BME280_humidity;BME280_pressure;Samples;Min_cycle;Max_cycle;Signal;HPM_P1;HPM_P2
2022/01/29 00:00:08;;;;;;;0.30;0.30;;;;;;;6.18;100.00;101884.41;5015623;28;20559;-50
2022/01/29 00:02:34;;;;;;;0.20;0.20;;;;;;;6.13;100.00;101873.75;5033461;28;20475;-50
2022/01/29 00:05:01;;;;;;;0.20;0.10;;;;;;;6.20;100.00;101856.25;5029352;28;20451;-50
2022/01/29 00:07:28;;;;;;;0.20;0.10;;;;;;;6.17;100.00;101857.09;5017883;28;20589;-49
2022/01/29 00:10:02;;;;;;;0.20;0.10;;;;;;;6.16;100.00;101850.03;5025671;28;20511;-50
2022/01/29 00:12:29;;;;;;;0.20;0.20;;;;;;;6.19;100.00;101847.44;5016512;28;20494;-50
2022/01/29 00:14:55;;;;;;;0.20;0.20;;;;;;;6.12;100.00;101855.25;5012891;28;20547;-50
2022/01/29 00:17:22;;;;;;;0.20;0.10;;;;;;;6.07;100.00;101854.31;5027917;28;20499;-49
2022/01/29 00:19:49;;;;;;;1.70;0.30;;;;;;;6.16;100.00;101838.56;5031320;28;20578;-50
2022/01/29 00:22:15;;;;;;;0.20;0.10;;;;;;;6.11;100.00;101840.28;5016915;28;20478;-50
2022/01/29 00:24:43;;;;;;;0.20;0.20;;;;;;;6.12;100.00;101832.38;5032395;28;20471;-49
2022/01/29 00:27:10;;;;;;;0.20;0.20;;;;;;;6.07;100.00;101834.06;5032394;28;20495;-50
2022/01/29 00:29:40;;;;;;;0.83;0.83;;;;;;;6.06;100.00;101829.66;5032733;28;20479;-50
2022/01/29 00:32:08;;;;;;;0.20;0.10;;;;;;;6.10;100.00;101834.09;5032544;28;20487;-50
2022/01/29 00:34:36;;;;;;;0.20;0.10;;;;;;;6.16;100.00;101823.63;5017661;28;20988;-50
2022/01/29 00:37:03;;;;;;;0.20;0.10;;;;;;;6.23;100.00;101829.88;5031888;28;20853;-50
2022/01/29 00:39:30;;;;;;;0.20;0.10;;;;;;;6.19;100.00;101831.59;5032496;28;20531;-50
2022/01/29 00:41:57;;;;;;;0.20;0.10;;;;;;;6.12;100.00;101831.47;5023474;28;20456;-50
2022/01/29 00:44:41;;;;;;;0.33;0.30;;;;;;;6.14;100.00;101833.28;5031572;28;20927;-51
2022/01/29 00:47:08;;;;;;;0.20;0.10;;;;;;;6.15;100.00;101842.09;5014693;28;20522;-50
2022/01/29 00:49:34;;;;;;;0.20;0.10;;;;;;;6.09;100.00;101839.38;5032072;28;20500;-50
2022/01/29 00:52:01;;;;;;;0.20;0.10;;;;;;;5.98;100.00;101840.94;5026591;28;20460;-51
2022/01/29 00:54:28;;;;;;;0.20;0.10;;;;;;;6.02;100.00;101833.09;5032112;28;20483;-51
2022/01/29 00:56:55;;;;;;;0.20;0.10;;;;;;;6.13;100.00;101828.88;5013409;28;20573;-50
2022/01/29 00:59:22;;;;;;;0.20;0.10;;;;;;;5.96;100.00;101817.19;5032496;28;20493;-50
2022/01/29 01:01:49;;;;;;;0.20;0.10;;;;;;;6.05;100.00;101819.09;5029246;28;20964;-50
2022/01/29 01:04:16;;;;;;;0.50;0.50;;;;;;;6.13;100.00;101818.31;5032329;28;20487;-50
2022/01/29 01:06:42;;;;;;;0.57;0.57;;;;;;;6.14;100.00;101822.72;5031593;28;20455;-51
2022/01/29 01:09:09;;;;;;;0.20;0.20;;;;;;;6.00;100.00;101812.81;5032041;28;20479;-50
2022/01/29 01:11:35;;;;;;;0.20;0.10;;;;;;;6.01;100.00;101819.88;5026452;28;20483;-50
2022/01/29 01:14:02;;;;;;;1.30;1.20;;;;;;;5.95;100.00;101807.50;5031965;28;21006;-50
2022/01/29 01:16:29;;;;;;;7.93;2.10;;;;;;;6.01;100.00;101822.53;5027231;28;20482;-50
2022/01/29 01:18:55;;;;;;;0.20;0.20;;;;;;;6.13;100.00;101812.13;5032003;28;20555;-50
2022/01/29 01:21:22;;;;;;;0.60;0.57;;;;;;;6.04;100.00;101810.28;5023057;28;20483;-50
2022/01/29 01:23:49;;;;;;;0.20;0.20;;;;;;;6.11;100.00;101809.47;5035607;28;20482;-50
2022/01/29 01:26:15;;;;;;;0.20;0.20;;;;;;;6.06;100.00;101810.28;5035418;28;20542;-50
2022/01/29 01:28:42;;;;;;;0.20;0.10;;;;;;;6.12;100.00;101811.25;5023865;28;20492;-50
2022/01/29 01:31:08;;;;;;;0.20;0.10;;;;;;;6.15;100.00;101811.28;5033733;28;20884;-50
2022/01/29 01:33:35;;;;;;;0.20;0.10;;;;;;;6.04;100.00;101796.19;5035279;28;20447;-50
2022/01/29 01:36:05;;;;;;;0.53;0.53;;;;;;;6.12;100.00;101787.50;5035179;28;20999;-51
2022/01/29 01:38:42;;;;;;;0.20;0.10;;;;;;;6.12;100.00;101791.88;5035189;28;20855;-50
2022/01/29 01:41:13;;;;;;;0.33;0.30;;;;;;;5.91;100.00;101798.66;5035781;28;20522;-50
2022/01/29 01:43:40;;;;;;;0.20;0.10;;;;;;;5.99;100.00;101789.94;5013014;28;20489;-51
2022/01/29 01:46:06;;;;;;;0.20;0.10;;;;;;;5.99;100.00;101789.94;5017974;28;20454;-50
2022/01/29 01:48:33;;;;;;;0.30;0.20;;;;;;;6.00;100.00;101779.41;5011727;28;20497;-51
2022/01/29 01:51:00;;;;;;;0.20;0.10;;;;;;;6.02;100.00;101774.16;5009833;28;20480;-50
2022/01/29 01:53:27;;;;;;;0.20;0.10;;;;;;;6.00;100.00;101770.59;5008900;28;20896;-50
2022/01/29 01:55:54;;;;;;;0.20;0.20;;;;;;;5.90;100.00;101757.31;5035329;28;20530;-50
2022/01/29 01:58:20;;;;;;;0.20;0.10;;;;;;;5.96;100.00;101750.31;5034897;28;20542;-51
2022/01/29 02:00:47;;;;;;;0.20;0.10;;;;;;;5.97;100.00;101757.38;5019226;28;20458;-50
2022/01/29 02:03:14;;;;;;;0.20;0.13;;;;;;;6.00;100.00;101753.00;5026675;28;20447;-51
2022/01/29 02:05:40;;;;;;;0.20;0.20;;;;;;;5.96;100.00;101748.56;5035171;28;20941;-50
2022/01/29 02:08:08;;;;;;;0.20;0.10;;;;;;;6.01;100.00;101752.16;5034640;28;20530;-50
2022/01/29 02:10:35;;;;;;;0.20;0.10;;;;;;;6.00;100.00;101744.22;5034683;28;20880;-50
2022/01/29 02:13:04;;;;;;;0.20;0.10;;;;;;;5.98;100.00;101732.75;5034550;28;20984;-50
2022/01/29 02:15:31;;;;;;;0.20;0.10;;;;;;;6.06;100.00;101725.84;5018888;28;20454;-50
2022/01/29 02:17:59;;;;;;;0.20;0.20;;;;;;;6.05;100.00;101731.97;5031229;28;21004;-50
2022/01/29 02:20:29;;;;;;;0.20;0.20;;;;;;;6.04;100.00;101724.94;5033161;28;20545;-51
2022/01/29 02:22:56;;;;;;;0.20;0.13;;;;;;;6.00;100.00;101723.09;5034613;28;20479;-50
2022/01/29 02:25:32;;;;;;;0.20;0.10;;;;;;;5.92;100.00;101723.00;5034670;28;20543;-50
2022/01/29 02:28:08;;;;;;;0.20;0.10;;;;;;;5.94;100.00;101721.28;5034656;28;20574;-50
2022/01/29 02:30:37;;;;;;;0.20;0.10;;;;;;;5.94;100.00;101723.91;5034627;28;20443;-50
2022/01/29 02:33:08;;;;;;;0.20;0.20;;;;;;;5.93;100.00;101711.59;5026349;28;20881;-50
2022/01/29 02:35:46;;;;;;;0.20;0.10;;;;;;;5.78;100.00;101719.25;5030065;28;20471;-51
2022/01/29 02:38:15;;;;;;;0.20;0.10;;;;;;;5.73;100.00;101706.00;5017236;28;20505;-50
2022/01/29 02:40:47;;;;;;;0.20;0.10;;;;;;;5.90;100.00;101706.28;5030222;28;20538;-50
2022/01/29 02:43:32;;;;;;;0.20;0.10;;;;;;;5.89;100.00;101697.44;5034711;28;20576;-50
2022/01/29 02:46:19;;;;;;;0.20;0.10;;;;;;;5.92;100.00;101678.16;5004032;28;20444;-50
2022/01/29 02:48:52;;;;;;;0.20;0.20;;;;;;;5.86;100.00;101680.66;5031254;28;20501;-50
2022/01/29 02:51:20;;;;;;;0.20;0.20;;;;;;;5.73;100.00;101676.97;5031353;28;20945;-50
2022/01/29 02:53:47;;;;;;;0.20;0.10;;;;;;;5.60;100.00;101678.56;5032776;28;20494;-50
2022/01/29 02:56:13;;;;;;;0.20;0.20;;;;;;;5.65;100.00;101676.00;5034675;28;20494;-50
2022/01/29 02:58:40;;;;;;;0.30;0.20;;;;;;;5.60;100.00;101665.38;5023089;28;20526;-50
2022/01/29 03:01:08;;;;;;;0.47;0.47;;;;;;;5.66;100.00;101672.50;5022896;28;20503;-50
2022/01/29 03:03:34;;;;;;;8.57;2.43;;;;;;;5.73;100.00;101665.53;5016149;28;20530;-50
2022/01/29 03:06:08;;;;;;;0.20;0.10;;;;;;;5.75;100.00;101658.50;5034740;28;20447;-50
2022/01/29 03:08:36;;;;;;;0.20;0.10;;;;;;;5.59;100.00;101654.78;5034340;28;20506;-50
2022/01/29 03:11:05;;;;;;;0.83;0.83;;;;;;;5.69;100.00;101651.44;5034173;28;20979;-51
2022/01/29 03:13:32;;;;;;;1.10;1.03;;;;;;;5.67;100.00;101644.38;5025223;28;20551;-50
2022/01/29 03:15:59;;;;;;;0.70;0.70;;;;;;;5.57;100.00;101646.88;5020987;28;20529;-50
2022/01/29 03:18:25;;;;;;;0.20;0.10;;;;;;;5.50;100.00;101652.06;5034241;28;20471;-50
2022/01/29 03:20:52;;;;;;;0.57;0.57;;;;;;;5.49;100.00;101652.91;5034190;28;20806;-51
2022/01/29 03:23:18;;;;;;;0.63;0.63;;;;;;;5.44;100.00;101652.84;5031128;28;20502;-50
2022/01/29 03:25:45;;;;;;;0.20;0.10;;;;;;;5.51;100.00;101654.72;5033882;28;20917;-50
2022/01/29 03:28:11;;;;;;;0.20;0.10;;;;;;;5.56;100.00;101641.56;5030687;28;20518;-50
2022/01/29 03:30:38;;;;;;;0.20;0.10;;;;;;;5.57;100.00;101638.94;5033986;28;20883;-50
2022/01/29 03:33:05;;;;;;;0.20;0.10;;;;;;;5.66;100.00;101640.84;5033919;28;20899;-50
2022/01/29 03:35:31;;;;;;;0.20;0.10;;;;;;;5.57;100.00;101630.16;5033957;28;20550;-50
2022/01/29 03:37:58;;;;;;;0.20;0.10;;;;;;;5.63;100.00;101632.91;5033607;28;21012;-50
2022/01/29 03:40:25;;;;;;;0.20;0.10;;;;;;;5.57;100.00;101628.41;5033741;28;21040;-50
2022/01/29 03:43:08;;;;;;;0.20;0.10;;;;;;;5.60;100.00;101633.72;5018250;28;20485;-50
2022/01/29 03:45:35;;;;;;;0.20;0.10;;;;;;;5.74;100.00;101641.81;5012869;28;20987;-51
2022/01/29 03:48:03;;;;;;;0.20;0.10;;;;;;;5.75;100.00;101634.78;5022405;28;20538;-51
2022/01/29 03:50:29;;;;;;;0.20;0.10;;;;;;;5.71;100.00;101636.50;5028623;28;20494;-50
2022/01/29 03:52:56;;;;;;;0.60;0.60;;;;;;;5.63;100.00;101641.69;5027958;28;20483;-50
2022/01/29 03:55:22;;;;;;;1.37;1.27;;;;;;;5.64;100.00;101645.22;5033268;28;20879;-50
2022/01/29 03:57:49;;;;;;;0.20;0.10;;;;;;;5.63;100.00;101646.97;5030959;28;20503;-50
2022/01/29 04:00:16;;;;;;;0.20;0.10;;;;;;;5.45;100.00;101646.69;5029047;28;20491;-50
2022/01/29 04:02:42;;;;;;;0.20;0.10;;;;;;;5.58;100.00;101635.44;5024724;28;20542;-50
2022/01/29 04:05:10;;;;;;;0.20;0.10;;;;;;;5.60;100.00;101620.53;5016032;28;20456;-50
2022/01/29 04:07:38;;;;;;;0.20;0.20;;;;;;;5.64;100.00;101610.94;5033045;28;20533;-50
2022/01/29 04:10:05;;;;;;;0.20;0.10;;;;;;;5.77;100.00;101607.56;5033134;28;20543;-50
2022/01/29 04:12:38;;;;;;;0.20;0.10;;;;;;;5.70;100.00;101620.66;5013867;28;21042;-50
2022/01/29 04:15:05;;;;;;;0.20;0.10;;;;;;;5.57;100.00;101627.53;5009657;28;20506;-50
2022/01/29 04:17:31;;;;;;;0.20;0.10;;;;;;;5.62;100.00;101620.56;5003998;28;21033;-50
2022/01/29 04:19:58;;;;;;;0.20;0.10;;;;;;;5.51;100.00;101617.78;5006141;28;20488;-50
2022/01/29 04:22:25;;;;;;;0.20;0.20;;;;;;;5.63;100.00;101615.31;5009942;28;20534;-50
2022/01/29 04:24:51;;;;;;;0.20;0.10;;;;;;;5.62;100.00;101599.47;5021230;28;20487;-50
2022/01/29 04:27:22;;;;;;;3.10;1.37;;;;;;;5.60;100.00;101606.44;5009292;28;20474;-51
2022/01/29 04:29:54;;;;;;;0.20;0.10;;;;;;;5.62;100.00;101584.53;5036381;28;21062;-50
2022/01/29 04:32:31;;;;;;;0.20;0.10;;;;;;;5.79;100.00;101575.94;5035365;28;20472;-51
2022/01/29 04:34:57;;;;;;;0.20;0.10;;;;;;;5.87;100.00;101576.88;5032674;28;20521;-50
2022/01/29 04:37:24;;;;;;;0.20;0.10;;;;;;;5.75;100.00;101566.19;5033021;28;20541;-50
2022/01/29 04:39:50;;;;;;;0.20;0.20;;;;;;;5.82;100.00;101568.03;5032692;28;21028;-51
2022/01/29 04:42:17;;;;;;;0.20;0.10;;;;;;;5.83;100.00;101572.44;5023273;28;20490;-51
2022/01/29 04:44:44;;;;;;;0.20;0.10;;;;;;;5.77;100.00;101580.31;5022013;28;20535;-51
2022/01/29 04:47:10;;;;;;;0.20;0.10;;;;;;;5.79;100.00;101575.94;5018950;28;20538;-51
2022/01/29 04:49:37;;;;;;;0.20;0.10;;;;;;;5.76;100.00;101575.91;5032760;28;20523;-51
2022/01/29 04:52:04;;;;;;;0.20;0.10;;;;;;;5.70;100.00;101578.44;5009698;28;20487;-50
2022/01/29 04:54:31;;;;;;;1.50;1.50;;;;;;;5.80;100.00;101577.69;5033777;28;20483;-51
2022/01/29 04:56:57;;;;;;;0.30;0.20;;;;;;;5.78;100.00;101567.13;5004295;28;20500;-51
2022/01/29 04:59:24;;;;;;;0.20;0.10;;;;;;;5.83;100.00;101567.19;5019086;28;20876;-50
2022/01/29 05:01:50;;;;;;;0.20;0.10;;;;;;;5.75;100.00;101577.63;5031281;28;20547;-51
2022/01/29 05:04:18;;;;;;;0.20;0.10;;;;;;;5.75;100.00;101576.75;5036794;28;20515;-50
2022/01/29 05:06:44;;;;;;;0.53;0.53;;;;;;;5.80;100.00;101582.97;5034279;28;20451;-51
2022/01/29 05:09:11;;;;;;;0.20;0.20;;;;;;;5.90;100.00;101580.50;5036276;28;20569;-51
2022/01/29 05:11:39;;;;;;;0.20;0.10;;;;;;;5.73;100.00;101587.28;5035724;28;20530;-51
2022/01/29 05:14:09;;;;;;;0.20;0.10;;;;;;;5.72;100.00;101587.25;5036483;28;20447;-51
2022/01/29 05:27:36;;;;;;;0.20;0.10;;;;;;;5.68;100.00;101578.44;5036500;28;20504;-50
2022/01/29 05:30:03;;;;;;;0.20;0.13;;;;;;;5.51;100.00;101572.06;5036434;28;20930;-50
2022/01/29 05:32:29;;;;;;;0.20;0.13;;;;;;;5.52;100.00;101558.91;5036222;28;20480;-50
2022/01/29 05:34:56;;;;;;;0.20;0.10;;;;;;;5.55;100.00;101556.28;5036427;28;21277;-50
2022/01/29 05:37:39;;;;;;;0.20;0.10;;;;;;;5.63;100.00;101549.38;5034341;28;20537;-51
2022/01/29 05:40:07;;;;;;;0.20;0.10;;;;;;;5.67;100.00;101547.66;5035941;28;21039;-51
2022/01/29 05:42:34;;;;;;;2.83;0.67;;;;;;;5.70;100.00;101549.44;5036123;28;20486;-51
2022/01/29 05:45:00;;;;;;;0.30;0.20;;;;;;;5.76;100.00;101538.97;5023492;28;20484;-51
2022/01/29 05:47:27;;;;;;;0.47;0.47;;;;;;;5.66;100.00;101540.59;5023732;28;21020;-50
2022/01/29 05:49:53;;;;;;;0.20;0.10;;;;;;;5.70;100.00;101549.44;5023275;28;20511;-51
2022/01/29 05:52:20;;;;;;;0.20;0.10;;;;;;;5.67;100.00;101554.69;5029250;28;20487;-51
2022/01/29 05:54:47;;;;;;;3.10;2.90;;;;;;;5.58;100.00;101551.06;5031367;28;20863;-50
2022/01/29 05:57:13;;;;;;;0.20;0.10;;;;;;;5.66;100.00;101548.53;5027109;28;20483;-51
2022/01/29 05:59:40;;;;;;;0.20;0.20;;;;;;;5.53;100.00;101552.75;5035883;28;20486;-51
2022/01/29 06:02:06;;;;;;;0.20;0.20;;;;;;;5.63;100.00;101559.03;5035937;28;20452;-51
2022/01/29 06:04:33;;;;;;;0.20;0.10;;;;;;;5.79;100.00;101574.19;5017488;28;20950;-52
2022/01/29 06:06:59;;;;;;;0.20;0.20;;;;;;;5.84;100.00;101566.31;5031410;28;21039;-51
2022/01/29 06:09:26;;;;;;;1.43;1.33;;;;;;;5.91;100.00;101566.44;5022049;28;21032;-52
2022/01/29 06:11:53;;;;;;;0.20;0.10;;;;;;;5.96;100.00;101562.94;5022786;28;20501;-51
2022/01/29 06:14:21;;;;;;;0.20;0.10;;;;;;;5.87;100.00;101563.69;5034575;28;20447;-51
2022/01/29 06:16:47;;;;;;;0.20;0.20;;;;;;;5.91;100.00;101560.28;5030352;28;21040;-50
2022/01/29 06:19:14;;;;;;;0.20;0.10;;;;;;;5.85;100.00;101553.13;5034762;28;20896;-50
2022/01/29 06:21:41;;;;;;;0.20;0.10;;;;;;;5.87;100.00;101548.75;5034795;28;20502;-50
2022/01/29 06:24:07;;;;;;;0.20;0.10;;;;;;;5.92;100.00;101546.22;5034847;28;20531;-50
2022/01/29 06:26:34;;;;;;;0.20;0.10;;;;;;;5.81;100.00;101546.06;5028248;28;20537;-49
2022/01/29 06:29:01;;;;;;;0.20;0.10;;;;;;;5.90;100.00;101537.41;5029137;28;20570;-50
2022/01/29 06:31:28;;;;;;;0.20;0.10;;;;;;;5.84;100.00;101532.00;5028894;28;20456;-50
2022/01/29 06:33:55;;;;;;;0.20;0.10;;;;;;;5.85;100.00;101545.22;5029878;28;20447;-50
2022/01/29 06:36:22;;;;;;;0.20;0.10;;;;;;;5.89;100.00;101535.56;5034473;28;20538;-49
2022/01/29 06:38:48;;;;;;;0.20;0.10;;;;;;;5.82;100.00;101549.56;5030787;28;20521;-50
2022/01/29 06:41:15;;;;;;;0.20;0.17;;;;;;;5.96;100.00;101550.66;5028480;28;20485;-49
2022/01/29 06:43:41;;;;;;;0.20;0.20;;;;;;;5.93;100.00;101550.63;5005425;28;20486;-50
2022/01/29 06:46:08;;;;;;;0.20;0.13;;;;;;;5.87;100.00;101547.84;4998711;28;20876;-50
2022/01/29 06:48:35;;;;;;;0.20;0.10;;;;;;;5.89;100.00;101552.31;5029580;28;20487;-50
2022/01/29 06:51:01;;;;;;;7.63;1.60;;;;;;;5.96;100.00;101552.41;5033291;28;20506;-50
2022/01/29 06:53:28;;;;;;;0.20;0.10;;;;;;;5.91;100.00;101560.28;5018723;28;20453;-50
2022/01/29 06:55:54;;;;;;;0.20;0.10;;;;;;;5.96;100.00;101563.84;5034245;28;21040;-50
2022/01/29 06:58:21;;;;;;;0.20;0.10;;;;;;;5.90;100.00;101558.50;5033807;28;20555;-49
2022/01/29 07:01:07;;;;;;;0.20;0.10;;;;;;;5.87;100.00;101561.94;5033988;28;20458;-50
2022/01/29 07:03:35;;;;;;;0.20;0.10;;;;;;;5.98;100.00;101551.53;5027920;28;20446;-50
2022/01/29 07:06:04;;;;;;;0.20;0.10;;;;;;;5.95;100.00;101551.50;5017815;28;20475;-50
2022/01/29 07:08:33;;;;;;;0.20;0.10;;;;;;;5.92;100.00;101552.38;5034228;28;20472;-50
2022/01/29 07:11:00;;;;;;;0.20;0.10;;;;;;;5.94;100.00;101555.91;5034475;28;20483;-50
2022/01/29 07:13:26;;;;;;;0.20;0.10;;;;;;;5.98;100.00;101556.81;5034005;28;20482;-50
2022/01/29 07:15:53;;;;;;;0.20;0.10;;;;;;;5.91;100.00;101555.00;5029481;28;20480;-50
2022/01/29 07:18:20;;;;;;;0.20;0.10;;;;;;;5.95;100.00;101548.88;5028633;28;20471;-50
2022/01/29 07:20:48;;;;;;;0.20;0.10;;;;;;;5.96;100.00;101553.28;5019372;28;20475;-49
2022/01/29 07:23:14;;;;;;;0.20;0.10;;;;;;;5.94;100.00;101552.38;5033528;28;20494;-50
2022/01/29 07:25:41;;;;;;;0.20;0.10;;;;;;;5.84;100.00;101554.00;5033979;28;20448;-50
2022/01/29 07:28:08;;;;;;;0.67;0.67;;;;;;;5.84;100.00;101550.47;5033981;28;20503;-50
2022/01/29 07:30:34;;;;;;;0.20;0.10;;;;;;;5.80;100.00;101543.41;5033447;28;20583;-50
2022/01/29 07:33:01;;;;;;;0.20;0.10;;;;;;;5.82;100.00;101544.31;5011691;28;20599;-50
2022/01/29 07:35:28;;;;;;;0.20;0.10;;;;;;;5.65;100.00;101536.22;5027577;28;20463;-50
2022/01/29 07:37:55;;;;;;;0.20;0.10;;;;;;;5.73;100.00;101531.00;5016776;28;20934;-50
2022/01/29 07:40:21;;;;;;;0.20;0.10;;;;;;;5.68;100.00;101525.69;5013139;28;20540;-50
2022/01/29 07:42:48;;;;;;;0.20;0.10;;;;;;;5.78;100.00;101527.56;5034202;28;20476;-50
2022/01/29 07:45:15;;;;;;;0.20;0.10;;;;;;;5.96;100.00;101533.94;5020708;28;20449;-50
2022/01/29 07:47:42;;;;;;;0.20;0.10;;;;;;;5.87;100.00;101535.56;5019522;28;20507;-50
2022/01/29 07:50:09;;;;;;;0.20;0.10;;;;;;;5.78;100.00;101532.84;5033277;28;20523;-50
2022/01/29 07:52:35;;;;;;;2.30;1.70;;;;;;;5.85;100.00;101528.50;5028230;28;20486;-50
2022/01/29 07:55:04;;;;;;;0.20;0.10;;;;;;;6.04;100.00;101526.97;5010606;28;20501;-50
2022/01/29 07:57:31;;;;;;;0.20;0.10;;;;;;;5.95;100.00;101527.75;5033529;28;20495;-50
2022/01/29 07:59:58;;;;;;;0.20;0.10;;;;;;;5.93;100.00;101524.22;5033608;28;20448;-50
2022/01/29 08:02:24;;;;;;;0.20;0.10;;;;;;;5.88;100.00;101531.16;5016343;28;20937;-50
2022/01/29 08:04:51;;;;;;;0.20;0.20;;;;;;;6.00;100.00;101520.78;5005164;28;20457;-50
2022/01/29 08:07:18;;;;;;;0.60;0.60;;;;;;;5.83;100.00;101525.84;5012587;28;20610;-50
2022/01/29 08:09:45;;;;;;;0.20;0.10;;;;;;;5.78;100.00;101532.84;5033511;28;20488;-50
2022/01/29 08:12:11;;;;;;;0.20;0.10;;;;;;;6.01;100.00;101524.28;5016916;28;20486;-50
2022/01/29 08:14:38;;;;;;;0.20;0.10;;;;;;;5.90;100.00;101526.84;5020789;28;20498;-50
2022/01/29 08:17:04;;;;;;;0.20;0.10;;;;;;;5.84;100.00;101524.09;5023340;28;20495;-50
2022/01/29 08:19:31;;;;;;;0.20;0.10;;;;;;;5.96;100.00;101521.63;5033339;28;20574;-50
2022/01/29 08:21:57;;;;;;;0.20;0.10;;;;;;;5.86;100.00;101522.34;5033178;28;20487;-50
2022/01/29 08:24:24;;;;;;;0.20;0.10;;;;;;;5.80;100.00;101515.25;5033117;28;20475;-50
2022/01/29 08:26:51;;;;;;;0.20;0.10;;;;;;;5.79;100.00;101508.22;5024798;28;20543;-50
2022/01/29 08:29:17;;;;;;;0.20;0.10;;;;;;;5.90;100.00;101508.38;5028809;28;20522;-50
2022/01/29 08:31:44;;;;;;;9.20;2.10;;;;;;;5.75;100.00;101518.69;5032988;28;20546;-51
2022/01/29 08:34:10;;;;;;;0.20;0.10;;;;;;;5.83;100.00;101515.28;5015031;28;20470;-49
2022/01/29 08:36:37;;;;;;;0.20;0.10;;;;;;;5.84;100.00;101508.25;5033264;28;20475;-50
2022/01/29 08:39:04;;;;;;;0.20;0.10;;;;;;;5.71;100.00;101512.53;5025885;28;20479;-50
2022/01/29 08:41:31;;;;;;;0.20;0.10;;;;;;;5.59;100.00;101499.19;5033565;28;20447;-50
2022/01/29 08:43:58;;;;;;;0.20;0.10;;;;;;;5.70;100.00;101505.47;5019750;28;20456;-50
2022/01/29 08:46:25;;;;;;;0.20;0.10;;;;;;;5.78;100.00;101502.94;4984453;28;20623;-50
2022/01/29 08:48:51;;;;;;;0.20;0.10;;;;;;;5.79;100.00;101496.78;5007920;28;20479;-50
2022/01/29 08:51:18;;;;;;;0.20;0.10;;;;;;;5.94;100.00;101499.63;5018848;28;20504;-50
2022/01/29 08:53:45;;;;;;;0.20;0.10;;;;;;;5.91;100.00;101499.59;5025564;28;20483;-51
2022/01/29 08:56:11;;;;;;;0.20;0.10;;;;;;;6.11;100.00;101500.66;5033102;28;20478;-51
2022/01/29 08:58:43;;;;;;;0.20;0.10;;;;;;;6.24;100.00;101504.28;5032320;28;20468;-51
2022/01/29 09:01:10;;;;;;;0.20;0.10;;;;;;;6.26;100.00;101480.53;5032867;28;20537;-50
2022/01/29 09:03:37;;;;;;;0.20;0.10;;;;;;;6.45;100.00;101488.63;5032436;28;20458;-51
2022/01/29 09:06:04;;;;;;;0.20;0.10;;;;;;;6.37;100.00;101487.66;5032382;28;20531;-51
2022/01/29 09:08:31;;;;;;;0.20;0.10;;;;;;;6.36;100.00;101482.38;5014642;28;20836;-51
2022/01/29 09:10:58;;;;;;;0.20;0.10;;;;;;;6.46;100.00;101478.94;5032466;28;20523;-51
2022/01/29 09:13:26;;;;;;;0.20;0.10;;;;;;;6.67;100.00;101475.56;5002088;28;21254;-51
2022/01/29 09:15:54;;;;;;;0.20;0.10;;;;;;;6.42;100.00;101477.13;5027942;28;20531;-52
2022/01/29 09:18:21;;;;;;;0.20;0.10;;;;;;;6.53;100.00;101478.09;5032055;28;20467;-51
2022/01/29 09:20:47;;;;;;;0.20;0.10;;;;;;;6.47;100.00;101472.78;5032089;28;20507;-51
2022/01/29 09:23:14;;;;;;;0.20;0.10;;;;;;;6.40;100.00;101476.25;5032195;28;20491;-50
2022/01/29 09:25:41;;;;;;;0.20;0.10;;;;;;;6.71;100.00;101480.84;5032200;28;20535;-51
2022/01/29 09:28:10;;;;;;;0.20;0.10;;;;;;;6.58;100.00;101471.13;5031722;28;20503;-51
2022/01/29 09:30:37;;;;;;;0.20;0.10;;;;;;;6.73;100.00;101478.25;5031424;28;20579;-51
2022/01/29 09:33:03;;;;;;;0.20;0.10;;;;;;;6.81;100.00;101468.59;5031656;28;20875;-52
2022/01/29 09:35:30;;;;;;;0.20;0.20;;;;;;;6.64;100.00;101460.56;5031625;28;20505;-50
2022/01/29 09:37:57;;;;;;;0.20;0.13;;;;;;;6.71;100.00;101461.47;5031599;28;20550;-51
2022/01/29 09:40:24;;;;;;;0.20;0.10;;;;;;;6.82;100.00;101457.16;5031784;28;20486;-51
2022/01/29 09:42:52;;;;;;;0.20;0.10;;;;;;;6.58;100.00;101454.34;5034478;28;20530;-51
2022/01/29 09:45:21;;;;;;;0.20;0.10;;;;;;;6.71;100.00;101446.50;5022438;28;20480;-51
2022/01/29 09:47:49;;;;;;;0.20;0.10;;;;;;;6.49;100.00;101444.63;5013856;28;20502;-52
2022/01/29 09:50:18;;;;;;;0.20;0.10;;;;;;;6.81;100.00;101445.69;5035015;28;20942;-51
2022/01/29 09:52:45;;;;;;;0.20;0.10;;;;;;;6.71;100.00;101445.63;5030120;28;20936;-52
2022/01/29 09:55:12;;;;;;;0.20;0.10;;;;;;;6.83;100.00;101446.56;5017401;28;20530;-52
2022/01/29 09:57:39;;;;;;;0.20;0.10;;;;;;;6.68;100.00;101445.63;5035096;28;20554;-52
2022/01/29 10:00:07;;;;;;;0.20;0.10;;;;;;;6.84;100.00;101444.81;5034905;28;21014;-51
2022/01/29 10:02:33;;;;;;;0.20;0.10;;;;;;;6.85;100.00;101441.28;5017648;28;20542;-51
2022/01/29 10:05:00;;;;;;;0.20;0.10;;;;;;;6.92;100.00;101444.88;5035007;28;20590;-51
2022/01/29 10:07:29;;;;;;;0.20;0.10;;;;;;;6.81;100.00;101436.88;5034986;28;20468;-51
2022/01/29 10:09:57;;;;;;;0.30;0.30;;;;;;;6.83;100.00;101437.78;5034665;28;20908;-51
2022/01/29 10:12:29;;;;;;;0.20;0.10;;;;;;;7.08;100.00;101436.13;5034866;28;20531;-51
2022/01/29 10:14:58;;;;;;;0.20;0.10;;;;;;;7.01;100.00;101435.22;5034640;28;20447;-51
2022/01/29 10:17:47;;;;;;;0.20;0.10;;;;;;;7.08;100.00;101439.66;5030586;28;21039;-52
2022/01/29 10:20:21;;;;;;;0.20;0.10;;;;;;;7.18;100.00;101437.06;5014097;28;20452;-51
2022/01/29 10:22:51;;;;;;;0.20;0.10;;;;;;;7.13;100.00;101432.66;5034513;28;20458;-51
2022/01/29 10:25:27;;;;;;;0.20;0.10;;;;;;;7.08;100.00;101438.78;5034346;28;20893;-51
2022/01/29 10:28:15;;;;;;;0.20;0.10;;;;;;;7.13;100.00;101423.84;5034313;28;20541;-52
2022/01/29 10:31:00;;;;;;;0.20;0.20;;;;;;;7.34;100.00;101418.59;5034089;28;20527;-52
2022/01/29 10:33:30;;;;;;;0.20;0.10;;;;;;;7.12;100.00;101422.91;5001545;28;20447;-52
2022/01/29 10:35:58;;;;;;;0.20;0.17;;;;;;;7.24;100.00;101414.16;5034087;28;20933;-52
2022/01/29 10:38:26;;;;;;;0.20;0.10;;;;;;;7.34;100.00;101410.66;5059604;22;20533;-54
2022/01/29 10:41:19;;;;;;;0.20;0.20;;;;;;;7.15;100.00;101415.91;5070022;28;20486;-54
2022/01/29 10:44:19;;;;;;;0.20;0.10;;;;;;;7.20;100.00;101417.66;5073474;28;20451;-54
2022/01/29 10:46:51;;;;;;;0.20;0.10;;;;;;;7.13;100.00;101413.25;5065750;28;20451;-53
2022/01/29 10:49:30;;;;;;;0.20;0.10;;;;;;;7.41;100.00;101417.75;5069233;28;20531;-53
2022/01/29 10:52:17;;;;;;;0.20;0.10;;;;;;;7.28;100.00;101415.94;5067650;28;20937;-54
2022/01/29 10:54:51;;;;;;;0.20;0.20;;;;;;;7.48;100.00;101418.63;5064749;28;20939;-53
2022/01/29 10:57:18;;;;;;;0.20;0.10;;;;;;;7.28;100.00;101413.31;5050637;28;20486;-53
2022/01/29 10:59:51;;;;;;;0.20;0.13;;;;;;;7.32;100.00;101420.34;5063252;28;21013;-53
2022/01/29 11:02:20;;;;;;;0.20;0.10;;;;;;;7.18;100.00;101416.78;5068683;28;20447;-54
2022/01/29 11:04:48;;;;;;;0.20;0.20;;;;;;;7.40;100.00;101410.69;5069488;28;20482;-53
2022/01/29 11:07:20;;;;;;;0.20;0.20;;;;;;;7.42;100.00;101408.06;5065164;28;20454;-54
2022/01/29 11:09:52;;;;;;;0.20;0.10;;;;;;;7.32;100.00;101399.19;5063281;28;21010;-54
2022/01/29 11:12:24;;;;;;;0.20;0.10;;;;;;;7.54;100.00;101393.94;5066717;28;20478;-53
2022/01/29 11:14:53;;;;;;;0.20;0.10;;;;;;;7.41;100.00;101393.06;5070746;28;20454;-53
2022/01/29 11:17:23;;;;;;;0.20;0.10;;;;;;;7.30;100.00;101386.84;5066782;28;20449;-53
2022/01/29 11:19:50;;;;;;;0.20;0.10;;;;;;;7.13;100.00;101374.47;5061342;28;20950;-53
2022/01/29 11:22:38;;;;;;;0.20;0.10;;;;;;;7.27;100.00;101373.63;5063065;28;20477;-53
2022/01/29 11:25:12;;;;;;;0.20;0.20;;;;;;;7.24;100.00;101368.31;5052065;28;20501;-54
2022/01/29 11:27:38;;;;;;;0.20;0.20;;;;;;;7.24;100.00;101365.66;5061893;28;20971;-53
2022/01/29 11:30:08;;;;;;;0.20;0.10;;;;;;;7.31;100.00;101363.06;5066949;28;21006;-53
2022/01/29 11:32:45;;;;;;;0.20;0.20;;;;;;;7.17;100.00;101351.56;5069402;28;20477;-53
2022/01/29 11:35:13;;;;;;;0.20;0.20;;;;;;;7.13;100.00;101353.34;5066891;28;20473;-58
2022/01/29 11:37:40;;;;;;;0.20;0.10;;;;;;;7.41;100.00;101363.97;5062711;28;20540;-54
2022/01/29 11:40:14;;;;;;;0.20;0.10;;;;;;;7.35;100.00;101359.53;5064241;28;20443;-53